Time;durP1;ratioP1;P1;durP2;ratioP2;P2;SDS_P1;SDS_P2;PMS_P1;PMS_P2;Temp;Humidity;BMP_temperature;BMP_pressure;BME280_temperature;BME280_humidity;BME280_pressure;Samples;Min_cycle;Max_cycle;Signal;HPM_P1;HPM_P2
2024/04/11 00:00:50;;;;;;;29.70;16.70;;;;;;;9.10;64.37;101993.51;111395;1246;23015;-72
2024/04/11 00:03:38;;;;;;;27.60;16.50;;;;;;;9.06;64.52;101994.01;111493;1252;23605;-71
2024/04/11 00:06:07;;;;;;;25.70;15.10;;;;;;;9.04;64.60;101994.61;111440;1252;21953;-72
2024/04/11 00:08:36;;;;;;;22.00;14.50;;;;;;;9.02;64.79;101994.66;111500;1252;23608;-72
2024/04/11 00:11:05;;;;;;;25.80;14.60;;;;;;;9.01;64.81;101993.11;111508;1252;22118;-71
2024/04/11 00:13:33;;;;;;;25.10;16.10;;;;;;;9.00;64.80;101998.95;111507;1245;22930;-70
2024/04/11 00:16:04;;;;;;;22.70;15.90;;;;;;;8.97;64.84;102003.44;111472;1252;22987;-71
2024/04/11 00:18:33;;;;;;;25.90;16.60;;;;;;;8.93;64.88;102004.12;111493;1252;25032;-70
2024/04/11 00:21:04;;;;;;;26.90;17.50;;;;;;;8.89;65.02;102000.40;111515;1252;21974;-70
2024/04/11 00:23:33;;;;;;;31.60;19.00;;;;;;;8.86;65.33;102001.58;111417;1252;22717;-71
2024/04/11 00:26:04;;;;;;;27.10;17.70;;;;;;;8.83;65.44;102001.85;111490;1252;22429;-69
2024/04/11 00:28:35;;;;;;;28.60;17.60;;;;;;;8.81;65.67;102003.52;111504;1252;21959;-71
2024/04/11 00:31:04;;;;;;;29.30;19.00;;;;;;;8.80;65.65;102004.95;111483;1252;23579;-72
2024/04/11 00:33:37;;;;;;;30.40;18.80;;;;;;;8.79;65.59;102002.90;111490;1252;21962;-69
2024/04/11 00:36:06;;;;;;;27.70;18.10;;;;;;;8.77;65.53;102004.73;111474;1252;21955;-70
2024/04/11 00:38:34;;;;;;;25.80;18.60;;;;;;;8.75;65.66;102004.44;111498;1252;23675;-72
2024/04/11 00:41:03;;;;;;;30.00;20.10;;;;;;;8.74;65.75;102003.61;111461;1252;21957;-70
2024/04/11 00:43:32;;;;;;;33.80;22.00;;;;;;;8.71;65.74;102000.02;111488;1252;21983;-70
2024/04/11 00:46:01;;;;;;;36.70;24.90;;;;;;;8.69;65.55;102005.73;111368;1252;23697;-71
2024/04/11 00:48:30;;;;;;;37.10;26.70;;;;;;;8.65;65.72;102006.38;111490;1252;22984;-74
2024/04/11 00:50:59;;;;;;;36.40;26.20;;;;;;;8.61;65.98;102007.74;111492;1252;21951;-72
2024/04/11 00:53:30;;;;;;;35.40;25.90;;;;;;;8.58;66.13;102005.23;111283;1252;144466;-72
2024/04/11 00:55:58;;;;;;;34.70;26.40;;;;;;;8.55;66.18;102001.30;111418;1252;21965;-71
2024/04/11 00:58:28;;;;;;;39.00;27.50;;;;;;;8.52;66.37;102001.20;111477;1252;23051;-70
2024/04/11 01:00:57;;;;;;;44.00;30.90;;;;;;;8.50;66.14;102003.06;111387;1252;21956;-73
2024/04/11 01:03:28;;;;;;;46.50;31.10;;;;;;;8.47;66.19;102004.02;111506;1252;21952;-70
2024/04/11 01:05:57;;;;;;;56.80;38.40;;;;;;;8.44;66.22;102003.08;111553;1252;21957;-74
2024/04/11 01:08:27;;;;;;;45.90;35.50;;;;;;;8.41;66.36;101996.16;111495;1252;24377;-71
2024/04/11 01:10:56;;;;;;;48.70;31.90;;;;;;;8.39;66.52;101995.15;111486;1252;21955;-70
2024/04/11 01:13:25;;;;;;;54.10;37.20;;;;;;;8.38;66.55;101998.02;111498;1252;21950;-71
2024/04/11 01:15:54;;;;;;;63.10;44.40;;;;;;;8.35;66.72;101997.20;111474;1247;21959;-70
2024/04/11 01:18:25;;;;;;;63.10;46.10;;;;;;;8.32;66.80;101992.92;111464;1252;21955;-70
2024/04/11 01:20:54;;;;;;;61.80;44.80;;;;;;;8.29;66.74;101993.73;111507;1252;23487;-71
2024/04/11 01:23:22;;;;;;;61.50;45.60;;;;;;;8.26;67.00;101995.23;111493;1252;21949;-69
2024/04/11 01:25:51;;;;;;;59.00;39.10;;;;;;;8.24;67.12;101993.21;111479;1252;21965;-69
2024/04/11 01:28:22;;;;;;;58.00;36.60;;;;;;;8.20;66.86;101995.10;111502;1252;23012;-70
2024/04/11 01:30:52;;;;;;;46.90;33.60;;;;;;;8.15;66.80;101994.56;111493;1252;21956;-70
2024/04/11 01:33:21;;;;;;;48.00;33.10;;;;;;;8.12;66.92;101997.84;111515;1252;21949;-70
2024/04/11 01:35:50;;;;;;;46.50;31.30;;;;;;;8.08;66.94;102004.45;111518;1252;22986;-72
2024/04/11 01:38:19;;;;;;;41.40;31.10;;;;;;;8.04;66.92;102005.97;111482;1252;21959;-71
2024/04/11 01:40:48;;;;;;;41.90;30.60;;;;;;;8.02;67.17;102010.27;111433;1252;23045;-70
2024/04/11 01:43:17;;;;;;;40.40;30.20;;;;;;;7.99;66.97;102014.55;111477;1252;23677;-71
2024/04/11 01:45:45;;;;;;;39.30;28.70;;;;;;;7.96;67.08;102016.92;111524;1252;21953;-69
2024/04/11 01:48:14;;;;;;;43.10;29.20;;;;;;;7.93;67.24;102015.11;111474;1252;22035;-70
2024/04/11 01:50:43;;;;;;;38.00;26.30;;;;;;;7.89;67.33;102011.73;111479;1252;22430;-71
2024/04/11 01:53:12;;;;;;;36.20;24.50;;;;;;;7.86;67.27;102012.34;111541;1252;23566;-70
2024/04/11 01:55:44;;;;;;;30.40;24.00;;;;;;;7.84;67.34;102009.79;111477;1252;22418;-71
2024/04/11 01:58:17;;;;;;;28.00;22.30;;;;;;;7.83;67.53;102008.59;111479;1252;23030;-71
2024/04/11 02:00:47;;;;;;;32.90;23.60;;;;;;;7.82;67.78;102008.97;111581;1252;22030;-71
2024/04/11 02:03:16;;;;;;;35.80;24.50;;;;;;;7.81;67.80;102011.63;111491;1252;22736;-70
2024/04/11 02:05:46;;;;;;;29.40;23.40;;;;;;;7.78;67.70;102012.60;111515;1252;22062;-70
2024/04/11 02:08:16;;;;;;;30.30;22.30;;;;;;;7.75;68.00;102016.22;111491;1252;21974;-71
2024/04/11 02:10:45;;;;;;;26.20;20.20;;;;;;;7.71;68.01;102017.21;111582;1252;21960;-73
2024/04/11 02:13:14;;;;;;;31.40;22.00;;;;;;;7.68;68.01;102014.85;112751;1252;22754;-71
2024/04/11 02:15:42;;;;;;;29.20;19.80;;;;;;;7.67;68.11;102015.41;111755;1252;21958;-71
2024/04/11 02:18:11;;;;;;;27.30;18.80;;;;;;;7.66;68.15;102017.73;111507;1252;21949;-71
2024/04/11 02:20:41;;;;;;;23.60;18.40;;;;;;;7.66;67.75;102015.64;111510;1252;23024;-73
2024/04/11 02:23:13;;;;;;;27.00;19.50;;;;;;;7.61;67.86;102017.19;111538;1252;21974;-74
2024/04/11 02:25:46;;;;;;;31.60;20.10;;;;;;;7.58;67.92;102018.34;111147;1252;22020;-73
2024/04/11 02:28:21;;;;;;;32.80;19.20;;;;;;;7.52;67.73;102021.65;111091;1252;23598;-73
2024/04/11 02:30:53;;;;;;;28.60;18.60;;;;;;;7.48;67.91;102024.06;111086;1252;22194;-73
2024/04/11 02:33:25;;;;;;;27.30;17.10;;;;;;;7.44;68.09;102026.98;111376;1252;21917;-71
2024/04/11 02:35:54;;;;;;;27.70;17.70;;;;;;;7.41;68.19;102033.56;111543;1252;21958;-71
2024/04/11 02:38:25;;;;;;;26.10;18.30;;;;;;;7.37;68.36;102032.46;111587;1252;21954;-71
2024/04/11 02:40:54;;;;;;;23.90;17.70;;;;;;;7.34;68.32;102032.19;111232;1252;23818;-69
2024/04/11 02:43:23;;;;;;;23.60;17.40;;;;;;;7.32;68.29;102035.39;111544;1252;22048;-72
2024/04/11 02:45:57;;;;;;;24.70;16.90;;;;;;;7.30;68.28;102037.90;111491;1252;21953;-71
2024/04/11 02:48:26;;;;;;;23.20;17.00;;;;;;;7.28;68.25;102036.23;111460;1252;21953;-71
2024/04/11 02:50:55;;;;;;;23.10;17.40;;;;;;;7.26;68.45;102035.39;111580;1252;21955;-70
2024/04/11 02:53:24;;;;;;;20.60;16.20;;;;;;;7.25;68.30;102036.30;111574;1252;23693;-72
2024/04/11 02:55:54;;;;;;;29.20;17.10;;;;;;;7.24;68.20;102037.05;111500;1252;23074;-71
2024/04/11 02:58:23;;;;;;;21.20;16.10;;;;;;;7.21;68.56;102042.73;111519;1252;21939;-71
2024/04/11 03:01:03;;;;;;;21.40;17.30;;;;;;;7.18;68.53;102045.08;111505;1252;21963;-71
2024/04/11 03:03:34;;;;;;;28.60;18.90;;;;;;;7.13;68.51;102045.93;111531;1252;21959;-70
2024/04/11 03:06:17;;;;;;;28.00;18.50;;;;;;;7.09;68.60;102050.25;111536;1247;21946;-71
2024/04/11 03:08:52;;;;;;;24.70;18.70;;;;;;;7.04;68.51;102048.30;111499;1252;21949;-70
2024/04/11 03:11:25;;;;;;;24.80;17.50;;;;;;;7.01;68.68;102047.87;111516;1252;21955;-71
2024/04/11 03:13:57;;;;;;;28.30;16.30;;;;;;;6.98;68.61;102045.66;111499;1248;21949;-70
2024/04/11 03:16:30;;;;;;;24.00;16.90;;;;;;;6.97;68.83;102049.20;111575;1252;22604;-71
2024/04/11 03:18:59;;;;;;;25.40;16.80;;;;;;;6.94;68.93;102047.34;111419;1252;21953;-69
2024/04/11 03:21:29;;;;;;;23.90;16.40;;;;;;;6.93;68.97;102051.05;111491;1252;22345;-70
2024/04/11 03:23:58;;;;;;;30.20;18.00;;;;;;;6.92;68.96;102051.78;111521;1252;23598;-70
2024/04/11 03:26:26;;;;;;;28.40;17.80;;;;;;;6.93;69.47;102052.11;111492;1252;21971;-70
2024/04/11 03:28:56;;;;;;;28.70;20.40;;;;;;;6.93;69.36;102055.42;111465;1252;21952;-70
2024/04/11 03:31:24;;;;;;;30.20;22.20;;;;;;;6.91;69.89;102055.14;111476;1252;21952;-70
2024/04/11 03:33:57;;;;;;;29.90;20.60;;;;;;;6.84;70.11;102057.78;111505;1252;21960;-70
2024/04/11 03:36:26;;;;;;;30.80;21.20;;;;;;;6.77;70.57;102057.45;111510;1252;21955;-71
2024/04/11 03:38:55;;;;;;;32.30;22.60;;;;;;;6.74;70.65;102054.36;111360;1252;21953;-70
2024/04/11 03:41:26;;;;;;;32.90;23.80;;;;;;;6.75;70.75;102054.01;111496;1252;23774;-71
2024/04/11 03:43:56;;;;;;;30.60;22.50;;;;;;;6.73;71.10;102053.35;111514;1252;23742;-73
2024/04/11 03:46:25;;;;;;;36.30;23.50;;;;;;;6.71;70.88;102055.66;111468;1252;22336;-72
2024/04/11 03:48:57;;;;;;;35.50;22.70;;;;;;;6.70;71.04;102058.68;111499;1252;23570;-70
2024/04/11 03:51:29;;;;;;;34.80;24.00;;;;;;;6.70;70.94;102066.05;111498;1252;22058;-72
2024/04/11 03:54:00;;;;;;;30.00;22.20;;;;;;;6.70;71.00;102067.08;111462;1252;23656;-71
2024/04/11 03:56:29;;;;;;;33.20;21.30;;;;;;;6.69;70.61;102066.92;111516;1250;23636;-72
2024/04/11 03:58:59;;;;;;;28.80;21.10;;;;;;;6.68;70.69;102068.35;111492;1252;21987;-71
2024/04/11 04:01:28;;;;;;;31.30;25.10;;;;;;;6.67;70.67;102071.89;111403;1252;21992;-71
2024/04/11 04:04:03;;;;;;;33.10;25.00;;;;;;;6.67;70.49;102073.13;111412;1252;22045;-74
2024/04/11 04:06:35;;;;;;;29.50;20.70;;;;;;;6.63;70.49;102071.14;111215;1252;21949;-74
2024/04/11 04:09:07;;;;;;;32.50;22.10;;;;;;;6.61;70.48;102072.58;111499;1252;23747;-76
2024/04/11 04:11:38;;;;;;;30.90;23.30;;;;;;;6.60;70.66;102072.09;111334;1252;21964;-74
2024/04/11 04:14:13;;;;;;;35.00;23.50;;;;;;;6.59;70.61;102076.48;111482;1252;22320;-73
2024/04/11 04:16:42;;;;;;;36.80;24.90;;;;;;;6.58;70.46;102078.61;111514;1252;22044;-74
2024/04/11 04:19:12;;;;;;;44.00;25.80;;;;;;;6.57;70.50;102079.69;111138;1252;21962;-74
2024/04/11 04:21:41;;;;;;;37.30;25.30;;;;;;;6.57;70.71;102084.23;111391;1252;23589;-70
2024/04/11 04:24:10;;;;;;;32.00;23.50;;;;;;;6.57;70.86;102085.11;111477;1252;21992;-71
2024/04/11 04:26:40;;;;;;;28.00;21.20;;;;;;;6.57;70.58;102087.38;111480;1252;23089;-73
2024/04/11 04:29:09;;;;;;;28.30;21.10;;;;;;;6.58;70.87;102094.53;111507;1252;21958;-72
2024/04/11 04:31:38;;;;;;;30.50;21.90;;;;;;;6.59;70.75;102095.38;111495;1252;22018;-70
2024/04/11 04:34:09;;;;;;;34.10;21.60;;;;;;;6.60;70.80;102092.71;111464;1252;21951;-70
2024/04/11 04:36:42;;;;;;;29.20;20.80;;;;;;;6.62;70.79;102089.70;111510;1252;23752;-72
2024/04/11 04:39:16;;;;;;;32.80;23.90;;;;;;;6.65;70.85;102088.59;111741;1252;21953;-72
2024/04/11 04:41:47;;;;;;;36.00;23.30;;;;;;;6.69;70.68;102090.05;112173;1252;21956;-68
2024/04/11 04:44:17;;;;;;;31.40;23.00;;;;;;;6.75;70.78;102088.49;111530;1252;22008;-70
2024/04/11 04:46:46;;;;;;;38.80;24.80;;;;;;;6.81;71.12;102090.59;111503;1252;21961;-70
2024/04/11 04:49:16;;;;;;;38.30;24.40;;;;;;;6.89;70.85;102093.69;111497;1252;21952;-69
2024/04/11 04:51:47;;;;;;;38.80;24.30;;;;;;;6.97;70.87;102096.81;111521;1252;23683;-70
2024/04/11 04:54:16;;;;;;;35.80;24.40;;;;;;;7.07;70.98;102099.38;111528;1252;23097;-70
2024/04/11 04:56:45;;;;;;;38.60;25.00;;;;;;;7.16;70.99;102100.70;111483;1252;21952;-70
2024/04/11 04:59:16;;;;;;;31.50;22.70;;;;;;;7.24;70.90;102095.56;111579;1252;21971;-69
2024/04/11 05:01:45;;;;;;;36.00;25.10;;;;;;;7.33;70.67;102095.46;111512;1252;22059;-70
2024/04/11 05:04:14;;;;;;;37.10;25.50;;;;;;;7.43;70.49;102097.10;111462;1252;21955;-71
2024/04/11 05:06:45;;;;;;;42.50;26.30;;;;;;;7.53;70.23;102098.22;111505;1252;22040;-70
2024/04/11 05:09:15;;;;;;;33.30;23.20;;;;;;;7.60;69.89;102102.77;111499;1252;21949;-69
2024/04/11 05:11:44;;;;;;;37.50;25.30;;;;;;;7.66;69.84;102103.11;111511;1252;23606;-71
2024/04/11 05:14:13;;;;;;;37.20;24.60;;;;;;;7.72;69.69;102107.30;111567;1252;23774;-73
2024/04/11 05:16:43;;;;;;;33.20;25.40;;;;;;;7.83;69.45;102112.23;111471;1252;21989;-71
2024/04/11 05:19:15;;;;;;;37.10;24.50;;;;;;;7.97;69.55;102112.31;111434;1252;21953;-70
2024/04/11 05:21:45;;;;;;;39.30;25.50;;;;;;;8.14;69.31;102107.58;111543;1245;23071;-69
2024/04/11 05:24:14;;;;;;;36.10;24.90;;;;;;;8.31;68.91;102110.89;111366;1252;21971;-71
2024/04/11 05:26:50;;;;;;;34.00;24.90;;;;;;;8.45;68.52;102118.38;111507;1252;23765;-70
2024/04/11 05:29:20;;;;;;;38.00;25.60;;;;;;;8.57;68.26;102117.45;111511;1252;22944;-72
2024/04/11 05:31:48;;;;;;;32.20;23.70;;;;;;;8.69;68.08;102118.44;111502;1252;21957;-70
2024/04/11 05:34:20;;;;;;;30.30;22.70;;;;;;;8.80;67.68;102115.96;111514;1252;23605;-72
2024/04/11 05:36:49;;;;;;;29.90;24.10;;;;;;;8.87;67.37;102116.96;111484;1252;21949;-70
2024/04/11 05:39:20;;;;;;;35.40;24.70;;;;;;;8.92;67.17;102120.27;111584;1252;21964;-71
2024/04/11 05:41:49;;;;;;;40.00;27.00;;;;;;;9.01;67.32;102128.59;111501;1252;22453;-71
2024/04/11 05:44:18;;;;;;;40.10;27.50;;;;;;;9.15;67.08;102131.42;111552;1252;22079;-72
2024/04/11 05:46:47;;;;;;;45.20;26.60;;;;;;;9.32;66.95;102133.27;111517;1252;22420;-72
2024/04/11 05:49:17;;;;;;;43.00;26.80;;;;;;;9.49;66.63;102137.77;111525;1252;21955;-70
2024/04/11 05:51:46;;;;;;;46.50;26.90;;;;;;;9.67;66.28;102140.27;111571;1251;21976;-74
2024/04/11 05:54:16;;;;;;;41.20;26.80;;;;;;;9.85;66.04;102141.52;111531;1252;22066;-70
2024/04/11 05:56:49;;;;;;;35.50;25.10;;;;;;;10.12;65.77;102139.42;111564;1252;21955;-71
2024/04/11 05:59:19;;;;;;;37.10;26.10;;;;;;;10.34;65.52;102135.38;111486;1252;21964;-72
2024/04/11 06:01:50;;;;;;;37.50;22.30;;;;;;;10.59;64.74;102135.05;111492;1252;23598;-71
2024/04/11 06:04:25;;;;;;;29.40;21.70;;;;;;;10.82;63.94;102134.76;111550;1252;23707;-70
2024/04/11 06:06:53;;;;;;;35.00;22.20;;;;;;;11.16;63.59;102136.83;111482;1252;21954;-68
2024/04/11 06:09:22;;;;;;;27.70;21.10;;;;;;;11.51;62.47;102134.76;111469;1252;23607;-71
2024/04/11 06:11:53;;;;;;;29.00;20.50;;;;;;;11.83;61.36;102135.21;111405;1252;24160;-70
2024/04/11 06:14:22;;;;;;;33.70;21.50;;;;;;;12.16;60.04;102134.58;111536;1252;21967;-70
2024/04/11 06:16:51;;;;;;;24.10;19.30;;;;;;;12.46;58.69;102134.67;111432;1252;21951;-69
2024/04/11 06:19:20;;;;;;;32.00;21.60;;;;;;;12.83;58.61;102137.41;111521;1252;21963;-69
2024/04/11 06:21:53;;;;;;;31.30;22.10;;;;;;;13.27;56.58;102138.33;111508;1241;23813;-68
2024/04/11 06:24:25;;;;;;;31.30;20.90;;;;;;;13.68;56.72;102139.65;111498;1248;22776;-70
2024/04/11 06:26:54;;;;;;;32.00;21.70;;;;;;;14.12;55.32;102143.77;111258;1252;21987;-71
2024/04/11 06:29:24;;;;;;;30.90;21.50;;;;;;;14.37;54.55;102137.91;111535;1252;21953;-70
2024/04/11 06:31:53;;;;;;;29.50;19.40;;;;;;;14.74;53.74;102139.30;111476;1252;22146;-70
2024/04/11 06:34:22;;;;;;;34.80;19.30;;;;;;;15.20;52.44;102142.61;111482;1252;23587;-73
2024/04/11 06:36:51;;;;;;;22.70;16.90;;;;;;;15.66;51.18;102149.20;111514;1252;22458;-69
2024/04/11 06:39:20;;;;;;;26.00;15.20;;;;;;;16.10;50.65;102149.23;111516;1252;24100;-71
2024/04/11 06:41:49;;;;;;;29.40;15.40;;;;;;;16.55;49.38;102141.15;111512;1252;21952;-69
2024/04/11 06:44:18;;;;;;;19.40;10.90;;;;;;;16.89;48.11;102139.06;111539;1249;23679;-70
2024/04/11 06:46:49;;;;;;;15.60;11.40;;;;;;;17.18;47.50;102138.67;111559;1252;21971;-69
2024/04/11 06:49:18;;;;;;;19.70;11.30;;;;;;;17.63;46.73;102137.77;111562;1252;21971;-71
2024/04/11 06:51:47;;;;;;;17.20;11.00;;;;;;;18.06;45.15;102139.48;111256;1252;22425;-72
2024/04/11 06:54:18;;;;;;;18.50;11.30;;;;;;;18.29;43.81;102143.00;111528;1252;24299;-70
2024/04/11 06:56:49;;;;;;;19.90;11.00;;;;;;;18.50;43.49;102140.18;111320;1252;22384;-69
2024/04/11 06:59:20;;;;;;;14.70;10.80;;;;;;;18.78;42.09;102140.92;111230;1247;21967;-69
2024/04/11 07:01:51;;;;;;;16.50;11.20;;;;;;;19.14;41.76;102142.08;111154;1252;23557;-72
2024/04/11 07:04:23;;;;;;;20.30;11.90;;;;;;;19.59;41.32;102144.64;111120;1252;22929;-72
2024/04/11 07:06:57;;;;;;;21.90;12.70;;;;;;;19.95;40.19;102142.83;111786;1252;21959;-71
2024/04/11 07:09:37;;;;;;;22.00;12.30;;;;;;;20.17;39.48;102141.34;111279;1252;22744;-70
2024/04/11 07:12:10;;;;;;;16.40;11.00;;;;;;;20.30;39.69;102144.37;111519;1252;22430;-70
2024/04/11 07:14:42;;;;;;;21.70;10.00;;;;;;;20.44;39.01;102136.63;111493;1241;21949;-72
2024/04/11 07:17:14;;;;;;;13.80;7.50;;;;;;;20.69;38.41;102134.19;111511;1252;21961;-71
2024/04/11 07:19:42;;;;;;;;;;;;;;;20.87;36.59;102137.16;111539;1252;23684;-71
2024/04/11 07:22:18;;;;;;;11.60;7.20;;;;;;;20.95;37.29;102136.11;111554;1252;22429;-71
2024/04/11 07:24:47;;;;;;;18.70;6.60;;;;;;;21.19;36.47;102138.66;111634;1252;21962;-71
2024/04/11 07:27:17;;;;;;;9.40;6.10;;;;;;;21.52;36.42;102138.50;111546;1252;23672;-70
2024/04/11 07:29:46;;;;;;;12.30;7.00;;;;;;;21.89;35.12;102138.65;111306;1252;22415;-70
2024/04/11 07:32:17;;;;;;;11.50;6.20;;;;;;;22.17;34.75;102141.34;111535;1252;21949;-70
2024/04/11 07:34:47;;;;;;;12.60;6.30;;;;;;;22.44;34.29;102145.16;111531;1252;24299;-70
2024/04/11 07:37:17;;;;;;;9.00;6.30;;;;;;;22.59;33.52;102146.48;111519;1252;21948;-69
2024/04/11 07:39:47;;;;;;;8.80;6.10;;;;;;;22.85;33.62;102145.96;111535;1252;22235;-73
2024/04/11 07:42:18;;;;;;;8.10;6.30;;;;;;;23.19;32.52;102145.27;111515;1252;21952;-69
2024/04/11 07:44:48;;;;;;;12.70;9.20;;;;;;;23.35;30.94;102147.86;111516;1252;22839;-70
2024/04/11 07:47:17;;;;;;;11.20;8.30;;;;;;;23.44;30.62;102153.14;111520;1252;21953;-72
2024/04/11 07:49:55;;;;;;;14.40;8.40;;;;;;;23.59;30.38;102149.35;111509;1249;22718;-69
2024/04/11 07:52:26;;;;;;;21.90;9.90;;;;;;;23.63;30.09;102150.41;111559;1252;23570;-70
2024/04/11 07:55:02;;;;;;;11.80;7.00;;;;;;;23.77;30.20;102153.51;111258;1252;21949;-70
2024/04/11 07:57:33;;;;;;;11.00;7.10;;;;;;;24.08;29.25;102154.84;110793;1250;22029;-70
2024/04/11 08:00:04;;;;;;;9.70;8.00;;;;;;;24.28;28.72;102158.42;110847;1252;21940;-70
2024/04/11 08:02:39;;;;;;;12.90;8.40;;;;;;;24.32;29.00;102156.35;111160;1252;23013;-75
2024/04/11 08:05:09;;;;;;;12.90;7.50;;;;;;;24.57;28.32;102147.19;111085;1252;21959;-70
2024/04/11 08:07:40;;;;;;;10.10;7.90;;;;;;;24.81;27.40;102153.40;111097;1252;22053;-71
2024/04/11 08:10:13;;;;;;;15.10;10.20;;;;;;;24.97;27.27;102152.15;111223;1252;22166;-70
2024/04/11 08:12:42;;;;;;;10.80;8.20;;;;;;;24.97;26.70;102148.19;111136;1252;24340;-71
2024/04/11 08:15:17;;;;;;;10.00;7.60;;;;;;;25.07;26.34;102144.48;111141;1252;23592;-71
2024/04/11 08:17:47;;;;;;;11.50;6.20;;;;;;;25.31;26.34;102142.10;110885;1252;22727;-71
2024/04/11 08:20:16;;;;;;;8.10;6.10;;;;;;;25.63;25.95;102145.45;110929;1253;21976;-72
2024/04/11 08:22:47;;;;;;;7.10;4.50;;;;;;;25.67;24.35;102145.58;111336;1253;21961;-68
2024/04/11 08:25:16;;;;;;;6.10;5.30;;;;;;;25.55;24.11;102142.77;111449;1253;22755;-69
2024/04/11 08:27:45;;;;;;;7.00;5.10;;;;;;;25.67;24.10;102141.58;111351;1253;24307;-69
2024/04/11 08:30:18;;;;;;;8.30;5.40;;;;;;;25.97;23.97;102145.60;111139;1250;21983;-69
2024/04/11 08:32:47;;;;;;;7.30;5.00;;;;;;;26.13;23.56;102146.77;111559;1252;23768;-72
2024/04/11 08:35:17;;;;;;;8.30;4.90;;;;;;;26.35;23.21;102147.47;111300;1248;21976;-72
2024/04/11 08:37:51;;;;;;;5.60;3.80;;;;;;;26.46;22.37;102141.04;111363;1252;21974;-72
2024/04/11 08:40:30;;;;;;;8.80;4.10;;;;;;;26.56;21.70;102139.39;111220;1245;22270;-75
2024/04/11 08:43:04;;;;;;;6.00;3.80;;;;;;;26.69;21.48;102137.25;111137;1251;22413;-73
2024/04/11 08:45:35;;;;;;;7.40;3.90;;;;;;;26.93;21.09;102134.21;111035;1258;23630;-72
2024/04/11 08:48:04;;;;;;;7.70;4.80;;;;;;;27.11;21.31;102137.05;110661;1258;21974;-71
2024/04/11 08:50:34;;;;;;;11.80;4.60;;;;;;;27.11;21.56;102135.27;110760;1257;23583;-72
2024/04/11 08:53:08;;;;;;;6.80;4.10;;;;;;;27.19;21.91;102133.28;111123;1257;21958;-73
2024/04/11 08:55:37;;;;;;;6.50;3.70;;;;;;;27.27;21.76;102132.02;111128;1257;22170;-71
2024/04/11 08:58:08;;;;;;;16.70;4.60;;;;;;;27.25;21.18;102126.63;110788;1257;22417;-72
2024/04/11 09:00:48;;;;;;;6.70;3.60;;;;;;;27.23;20.57;102126.28;110788;1254;21956;-71
2024/04/11 09:03:20;;;;;;;4.10;3.20;;;;;;;27.26;20.43;102127.30;110885;1252;22056;-72
2024/04/11 09:05:49;;;;;;;6.60;4.00;;;;;;;27.36;20.61;102128.27;111284;1252;23566;-71
2024/04/11 09:08:25;;;;;;;;;;;;;;;27.34;20.64;102130.11;111233;1252;23643;-71
2024/04/11 09:10:58;;;;;;;5.10;3.00;;;;;;;27.06;21.20;102132.61;110836;1252;23652;-72
2024/04/11 09:13:27;;;;;;;3.30;1.40;;;;;;;26.53;19.94;102133.71;111108;1252;23091;-71
2024/04/11 09:16:00;;;;;;;4.30;1.90;;;;;;;26.24;18.98;102129.91;111113;1252;23572;-70
2024/04/11 09:18:30;;;;;;;8.00;1.90;;;;;;;26.10;19.20;102129.05;111291;1252;23588;-71
2024/04/11 09:21:05;;;;;;;3.70;1.70;;;;;;;25.94;19.28;102133.55;111235;1252;23652;-71
2024/04/11 09:23:46;;;;;;;3.40;1.40;;;;;;;25.69;18.86;102132.92;111226;1252;23700;-71
2024/04/11 09:26:17;;;;;;;5.40;1.80;;;;;;;25.47;19.22;102128.96;111502;1245;23009;-71
2024/04/11 09:28:48;;;;;;;5.90;2.70;;;;;;;25.42;19.47;102130.56;111122;1250;23167;-71
2024/04/11 09:31:18;;;;;;;6.40;2.50;;;;;;;24.98;19.41;102134.71;111141;1252;23560;-70
2024/04/11 09:33:55;;;;;;;5.80;3.00;;;;;;;24.67;20.59;102135.08;110911;1252;23706;-72
2024/04/11 09:36:27;;;;;;;5.30;2.80;;;;;;;24.71;20.88;102133.42;111123;1251;23690;-70
2024/04/11 09:39:12;;;;;;;7.40;3.50;;;;;;;24.29;21.10;102137.29;111162;1252;21966;-70
2024/04/11 09:41:50;;;;;;;9.00;5.10;;;;;;;23.94;21.68;102136.27;111482;1252;22511;-72
2024/04/11 09:44:31;;;;;;;10.30;3.70;;;;;;;23.66;21.82;102130.55;111187;1252;22171;-71
2024/04/11 09:47:00;;;;;;;6.60;4.10;;;;;;;23.36;21.98;102130.75;111471;1252;23102;-73
2024/04/11 09:49:34;;;;;;;7.80;3.00;;;;;;;23.23;22.35;102129.86;111330;1252;23745;-71
2024/04/11 09:52:10;;;;;;;5.40;2.90;;;;;;;23.34;22.39;102124.29;111497;1252;23768;-69
2024/04/11 09:54:44;;;;;;;3.70;1.90;;;;;;;23.45;21.80;102120.89;111274;1252;22848;-70
2024/04/11 09:57:14;;;;;;;4.70;2.40;;;;;;;23.67;21.94;102121.13;111076;1252;23513;-68
2024/04/11 09:59:49;;;;;;;8.00;2.60;;;;;;;23.78;21.74;102124.55;111443;1252;21940;-71
2024/04/11 10:02:25;;;;;;;5.30;2.80;;;;;;;23.80;22.23;102127.03;111282;1252;21958;-71
2024/04/11 10:05:04;;;;;;;6.10;2.80;;;;;;;23.98;22.22;102126.84;110704;1257;23854;-70
2024/04/11 10:07:41;;;;;;;;;;;;;;;24.20;21.92;102126.63;110655;1253;22739;-72
2024/04/11 10:10:25;;;;;;;4.30;2.10;;;;;;;24.26;21.91;102124.23;110604;1257;22402;-73
2024/04/11 10:13:04;;;;;;;6.90;2.20;;;;;;;24.28;21.41;102117.59;110674;1257;22470;-72
2024/04/11 10:15:41;;;;;;;6.40;2.50;;;;;;;24.40;20.89;102108.61;110692;1257;21965;-73
2024/04/11 10:18:11;;;;;;;4.30;2.20;;;;;;;24.55;20.52;102103.65;110561;1257;23833;-71
2024/04/11 10:21:02;;;;;;;8.70;2.50;;;;;;;24.63;20.72;102104.65;110643;1257;23019;-71
2024/04/11 10:23:37;;;;;;;3.50;2.00;;;;;;;24.56;20.58;102104.16;110968;1252;21968;-71
2024/04/11 10:26:14;;;;;;;5.20;2.20;;;;;;;24.58;20.54;102102.80;111337;1252;21980;-71
2024/04/11 10:28:51;;;;;;;6.70;2.20;;;;;;;24.74;20.92;102102.98;111528;1252;21978;-71
2024/04/11 10:31:25;;;;;;;4.80;2.60;;;;;;;24.75;20.69;102103.83;111239;1252;21966;-71
2024/04/11 10:34:03;;;;;;;5.10;2.30;;;;;;;24.66;20.64;102100.36;111068;1252;23016;-71
2024/04/11 10:36:33;;;;;;;6.10;2.70;;;;;;;24.56;20.68;102100.69;111089;1252;23624;-73
2024/04/11 10:39:08;;;;;;;3.50;1.90;;;;;;;24.46;20.79;102098.16;111400;1252;22982;-72
2024/04/11 10:41:40;;;;;;;6.20;2.40;;;;;;;24.40;20.92;102093.70;111252;1252;23031;-70
2024/04/11 10:44:11;;;;;;;3.90;2.10;;;;;;;24.41;20.74;102091.23;111367;1252;24286;-70
2024/04/11 10:46:41;;;;;;;3.00;1.40;;;;;;;24.40;20.66;102088.31;111234;1252;22314;-71
2024/04/11 10:49:15;;;;;;;2.90;1.50;;;;;;;24.29;20.39;102087.93;111385;1242;22990;-70
2024/04/11 10:51:47;;;;;;;5.50;1.80;;;;;;;24.26;20.38;102082.10;111015;1256;21965;-71
2024/04/11 10:54:17;;;;;;;3.80;1.50;;;;;;;24.23;20.41;102081.02;110717;1257;23690;-71
2024/04/11 10:56:49;;;;;;;8.50;2.70;;;;;;;24.19;20.40;102084.63;110670;1257;22012;-76
2024/04/11 10:59:22;;;;;;;6.50;1.80;;;;;;;23.91;20.54;102080.55;110702;1249;22935;-73
2024/04/11 11:02:08;;;;;;;4.30;1.80;;;;;;;23.88;21.04;102079.45;110786;1257;21957;-72
2024/04/11 11:04:43;;;;;;;7.90;2.00;;;;;;;23.79;21.28;102081.38;110747;1254;22831;-72
2024/04/11 11:07:13;;;;;;;4.40;2.10;;;;;;;23.50;21.38;102083.89;110717;1257;21957;-72
2024/04/11 11:09:51;;;;;;;3.10;1.70;;;;;;;23.22;21.52;102082.65;110840;1252;22548;-73
2024/04/11 11:12:27;;;;;;;4.90;1.80;;;;;;;22.88;21.89;102078.14;110843;1252;22721;-72
2024/04/11 11:15:06;;;;;;;3.70;2.20;;;;;;;22.41;22.19;102071.80;111024;1252;22811;-72
2024/04/11 11:17:45;;;;;;;5.10;2.30;;;;;;;22.02;22.80;102065.84;111152;1252;22001;-77
2024/04/11 11:20:18;;;;;;;7.00;2.50;;;;;;;21.81;23.56;102066.59;111283;1252;22954;-72
2024/04/11 11:22:51;;;;;;;5.20;2.50;;;;;;;21.61;23.95;102063.30;111061;1252;22016;-72
2024/04/11 11:25:32;;;;;;;6.60;2.00;;;;;;;21.23;24.33;102055.55;111190;1252;23646;-73
2024/04/11 11:28:04;;;;;;;4.30;2.50;;;;;;;20.93;24.55;102057.45;111193;1252;21953;-71
2024/04/11 11:30:40;;;;;;;4.90;2.50;;;;;;;20.68;25.03;102051.46;111124;1252;22170;-73